Time;durP1;ratioP1;P1;durP2;ratioP2;P2;SDS_P1;SDS_P2;PMS_P1;PMS_P2;Temp;Humidity;BMP_temperature;BMP_pressure;BME280_temperature;BME280_humidity;BME280_pressure;Samples;Min_cycle;Max_cycle;Signal;HPM_P1;HPM_P2
2022/06/16 00:00:19;;;;;;;6.27;4.40;;;;;;;;;;5000102;28;20754;-74
2022/06/16 00:02:47;;;;;;;7.43;4.57;;;;;;;;;;4996610;28;20250;-72
2022/06/16 00:05:15;;;;;;;5.63;4.20;;;;;;;;;;4999282;28;20884;-73
2022/06/16 00:07:43;;;;;;;11.50;4.33;;;;;;;;;;4999192;28;20239;-74
2022/06/16 00:10:12;;;;;;;8.33;3.87;;;;;;;;;;4997156;28;20241;-73
2022/06/16 00:12:40;;;;;;;6.27;4.30;;;;;;;;;;5003059;28;20212;-78
2022/06/16 00:15:09;;;;;;;7.17;4.07;;;;;;;;;;4994021;28;20212;-72
2022/06/16 00:17:36;;;;;;;8.37;4.40;;;;;;;;;;4986857;28;20212;-73
2022/06/16 00:20:04;;;;;;;9.30;4.50;;;;;;;;;;4993241;28;20340;-74
2022/06/16 00:22:32;;;;;;;8.87;4.80;;;;;;;;;;4996789;28;20647;-75
2022/06/16 00:24:59;;;;;;;8.63;5.00;;;;;;;;;;4995650;28;20232;-76
2022/06/16 00:27:28;;;;;;;9.70;4.60;;;;;;;;;;4997325;28;20208;-73
2022/06/16 00:29:55;;;;;;;13.90;4.70;;;;;;;;;;5000031;28;20295;-73
2022/06/16 00:32:22;;;;;;;9.50;4.80;;;;;;;;;;4996130;28;20827;-75
2022/06/16 00:34:49;;;;;;;7.57;4.37;;;;;;;;;;4993797;28;20766;-74
2022/06/16 00:37:17;;;;;;;8.77;5.00;;;;;;;;;;4998509;28;20602;-75
2022/06/16 00:39:45;;;;;;;6.57;4.07;;;;;;;;;;4999075;28;20267;-74
2022/06/16 00:42:16;;;;;;;6.63;4.17;;;;;;;;;;4996212;28;20204;-74
2022/06/16 00:44:45;;;;;;;6.80;4.20;;;;;;;;;;4994693;28;20311;-75
2022/06/16 00:47:13;;;;;;;8.30;4.40;;;;;;;;;;4996897;28;20267;-76
2022/06/16 00:49:42;;;;;;;7.27;4.50;;;;;;;;;;4997378;28;20236;-73
2022/06/16 00:52:10;;;;;;;7.20;4.43;;;;;;;;;;5001222;28;20239;-76
2022/06/16 00:54:40;;;;;;;7.20;4.47;;;;;;;;;;4997527;28;20303;-76
2022/06/16 00:57:09;;;;;;;9.30;4.27;;;;;;;;;;4998363;28;20231;-75
2022/06/16 00:59:37;;;;;;;5.73;4.50;;;;;;;;;;4993442;28;20588;-76
2022/06/16 01:02:06;;;;;;;7.40;4.60;;;;;;;;;;4997171;28;20287;-76
2022/06/16 01:07:20;;;;;;;7.20;4.60;;;;;;;;;;4996945;28;20200;-76
2022/06/16 01:09:47;;;;;;;8.17;4.63;;;;;;;;;;4992123;28;20216;-73
2022/06/16 01:15:21;;;;;;;9.70;4.73;;;;;;;;;;4991779;28;20202;-76
2022/06/16 01:17:54;;;;;;;6.60;4.40;;;;;;;;;;4998999;28;20240;-75
2022/06/16 01:20:26;;;;;;;7.40;4.93;;;;;;;;;;4994782;28;20212;-74
2022/06/16 01:23:04;;;;;;;7.23;5.07;;;;;;;;;;4996260;28;20286;-73
2022/06/16 01:25:40;;;;;;;7.77;4.60;;;;;;;;;;4993986;28;20680;-74
2022/06/16 01:28:14;;;;;;;10.03;5.00;;;;;;;;;;5000293;28;20742;-73
2022/06/16 01:30:46;;;;;;;7.03;5.20;;;;;;;;;;5000327;28;20237;-73
2022/06/16 01:33:19;;;;;;;7.03;5.07;;;;;;;;;;4999949;28;20278;-75
2022/06/16 01:35:51;;;;;;;9.67;5.10;;;;;;;;;;4999060;28;20231;-75
2022/06/16 01:38:21;;;;;;;7.30;4.63;;;;;;;;;;4997319;28;20212;-75
2022/06/16 01:40:50;;;;;;;5.83;4.60;;;;;;;;;;4999059;28;20212;-73
2022/06/16 01:43:22;;;;;;;8.27;4.43;;;;;;;;;;4992699;28;20225;-74
2022/06/16 01:45:53;;;;;;;7.33;4.90;;;;;;;;;;4993586;28;20219;-74
2022/06/16 01:48:21;;;;;;;7.60;4.93;;;;;;;;;;4996503;28;20252;-73
2022/06/16 01:50:51;;;;;;;7.03;4.80;;;;;;;;;;4996893;28;20290;-74
2022/06/16 01:53:20;;;;;;;9.40;4.97;;;;;;;;;;4997316;28;20224;-75
2022/06/16 01:55:49;;;;;;;8.77;5.50;;;;;;;;;;4994228;28;20964;-75
2022/06/16 01:58:19;;;;;;;11.93;5.33;;;;;;;;;;5001060;28;20685;-75
2022/06/16 02:00:47;;;;;;;8.47;5.00;;;;;;;;;;4995922;28;20621;-75
2022/06/16 02:03:20;;;;;;;8.00;5.00;;;;;;;;;;5000170;28;20320;-74
2022/06/16 02:05:50;;;;;;;9.27;5.40;;;;;;;;;;4994889;28;20205;-75
2022/06/16 02:08:19;;;;;;;7.90;5.07;;;;;;;;;;4994871;28;20679;-75
2022/06/16 02:10:50;;;;;;;8.80;5.23;;;;;;;;;;4995062;28;20208;-75
2022/06/16 02:13:20;;;;;;;12.83;5.40;;;;;;;;;;4994507;28;20309;-75
2022/06/16 02:15:51;;;;;;;7.80;5.23;;;;;;;;;;4995838;28;20327;-73
2022/06/16 02:18:21;;;;;;;11.80;5.10;;;;;;;;;;4998025;28;20311;-73
2022/06/16 02:20:52;;;;;;;7.07;5.10;;;;;;;;;;4996372;28;20360;-75
2022/06/16 02:23:19;;;;;;;9.90;4.70;;;;;;;;;;4994403;28;20601;-73
2022/06/16 02:25:48;;;;;;;10.67;5.40;;;;;;;;;;4991492;28;20671;-77
2022/06/16 02:28:16;;;;;;;10.00;4.67;;;;;;;;;;4991225;28;20695;-73
2022/06/16 02:30:48;;;;;;;11.40;5.33;;;;;;;;;;4994729;28;20242;-75
2022/06/16 02:33:20;;;;;;;7.03;4.53;;;;;;;;;;4998228;28;20304;-75
2022/06/16 02:35:51;;;;;;;11.63;4.87;;;;;;;;;;4996320;28;20308;-73
2022/06/16 02:38:28;;;;;;;8.90;4.87;;;;;;;;;;4995253;28;20311;-73
2022/06/16 02:41:01;;;;;;;10.30;5.00;;;;;;;;;;4994039;28;20658;-75
2022/06/16 02:43:40;;;;;;;6.90;4.80;;;;;;;;;;4992724;28;20256;-73
2022/06/16 02:46:09;;;;;;;7.63;4.80;;;;;;;;;;4997238;28;20236;-74
2022/06/16 02:48:38;;;;;;;7.37;4.90;;;;;;;;;;4994779;28;20571;-74
2022/06/16 02:51:10;;;;;;;7.80;4.73;;;;;;;;;;4996842;28;20287;-75
2022/06/16 02:53:43;;;;;;;7.50;5.07;;;;;;;;;;4995934;28;20691;-75
2022/06/16 02:56:12;;;;;;;6.00;4.73;;;;;;;;;;4995780;28;20224;-75
2022/06/16 02:58:42;;;;;;;11.77;5.23;;;;;;;;;;4995347;28;20205;-74
2022/06/16 03:01:09;;;;;;;6.23;4.53;;;;;;;;;;4999298;28;20204;-74
2022/06/16 03:03:37;;;;;;;7.00;4.87;;;;;;;;;;4994012;28;20243;-73
2022/06/16 03:06:04;;;;;;;9.27;5.03;;;;;;;;;;4994283;28;20584;-75
2022/06/16 03:08:34;;;;;;;9.90;5.80;;;;;;;;;;4994672;28;20583;-76
2022/06/16 03:11:02;;;;;;;7.03;4.87;;;;;;;;;;4993554;28;20204;-76
2022/06/16 03:13:30;;;;;;;8.63;5.27;;;;;;;;;;4996061;28;20250;-73
2022/06/16 03:15:58;;;;;;;7.20;5.00;;;;;;;;;;4997136;28;20211;-76
2022/06/16 03:18:25;;;;;;;7.63;4.57;;;;;;;;;;4996004;28;20228;-75
2022/06/16 03:20:53;;;;;;;9.33;4.80;;;;;;;;;;4996075;28;20670;-76
2022/06/16 03:23:20;;;;;;;6.87;4.77;;;;;;;;;;4999216;28;20224;-76
2022/06/16 03:25:49;;;;;;;9.10;4.70;;;;;;;;;;4996989;28;20216;-76
2022/06/16 03:28:17;;;;;;;7.53;5.20;;;;;;;;;;4996711;28;20222;-76
2022/06/16 03:30:44;;;;;;;12.30;4.77;;;;;;;;;;4992934;28;20289;-75
2022/06/16 03:33:12;;;;;;;8.17;5.23;;;;;;;;;;4996091;28;20217;-75
2022/06/16 03:35:39;;;;;;;9.57;4.60;;;;;;;;;;4989570;28;20307;-75
2022/06/16 03:38:08;;;;;;;8.43;5.13;;;;;;;;;;4995098;28;20228;-76
2022/06/16 03:40:35;;;;;;;7.97;5.13;;;;;;;;;;4993845;28;20584;-76
2022/06/16 03:43:06;;;;;;;6.80;4.77;;;;;;;;;;4996446;28;20237;-76
2022/06/16 03:45:33;;;;;;;8.60;5.13;;;;;;;;;;4992115;28;20208;-75
2022/06/16 03:48:00;;;;;;;9.90;5.70;;;;;;;;;;4995700;28;20213;-73
2022/06/16 03:50:27;;;;;;;8.20;5.53;;;;;;;;;;4993296;28;20211;-75
2022/06/16 03:52:54;;;;;;;7.63;5.27;;;;;;;;;;4998861;28;20304;-75
2022/06/16 03:55:21;;;;;;;12.83;5.47;;;;;;;;;;4991733;28;20213;-76
2022/06/16 03:57:49;;;;;;;6.97;4.87;;;;;;;;;;4997386;28;20227;-76
2022/06/16 04:00:18;;;;;;;6.73;4.50;;;;;;;;;;4996821;28;20583;-76
2022/06/16 04:02:45;;;;;;;7.80;4.90;;;;;;;;;;4998967;28;20234;-75
2022/06/16 04:05:13;;;;;;;13.17;5.30;;;;;;;;;;4997325;28;20201;-74
2022/06/16 04:07:40;;;;;;;7.83;5.00;;;;;;;;;;4997786;28;20586;-74
2022/06/16 04:10:11;;;;;;;8.27;5.20;;;;;;;;;;4997704;28;20208;-76
2022/06/16 04:12:38;;;;;;;7.83;4.80;;;;;;;;;;4997908;28;20216;-76
2022/06/16 04:15:06;;;;;;;5.80;4.33;;;;;;;;;;4997501;28;20208;-73
2022/06/16 04:17:34;;;;;;;8.47;4.63;;;;;;;;;;4997552;28;20225;-74
2022/06/16 04:20:13;;;;;;;9.27;4.60;;;;;;;;;;4997706;28;20223;-76
2022/06/16 04:22:40;;;;;;;8.43;4.60;;;;;;;;;;4996943;28;20214;-76
2022/06/16 04:25:09;;;;;;;8.43;4.40;;;;;;;;;;4997755;28;20207;-76
2022/06/16 04:27:36;;;;;;;8.87;4.63;;;;;;;;;;4997441;28;20319;-76
2022/06/16 04:30:04;;;;;;;9.70;4.37;;;;;;;;;;4998515;28;20295;-75
2022/06/16 04:32:31;;;;;;;6.50;4.87;;;;;;;;;;5001148;28;20299;-75
2022/06/16 04:34:59;;;;;;;9.03;5.00;;;;;;;;;;5000193;28;20220;-77
2022/06/16 04:37:26;;;;;;;10.17;4.70;;;;;;;;;;4996059;28;20231;-76
2022/06/16 04:39:54;;;;;;;6.03;4.33;;;;;;;;;;4995325;28;20574;-73
2022/06/16 04:42:21;;;;;;;7.47;4.40;;;;;;;;;;4998452;28;20205;-73
2022/06/16 04:44:48;;;;;;;6.30;4.47;;;;;;;;;;4993104;28;20702;-75
2022/06/16 04:47:15;;;;;;;8.00;4.77;;;;;;;;;;4995483;28;20204;-76
2022/06/16 04:49:43;;;;;;;8.57;4.47;;;;;;;;;;4993066;28;20224;-75
2022/06/16 04:52:12;;;;;;;8.17;4.37;;;;;;;;;;4992407;28;20574;-77
2022/06/16 04:54:39;;;;;;;5.73;4.10;;;;;;;;;;4995867;28;20239;-76
2022/06/16 04:57:06;;;;;;;6.87;4.67;;;;;;;;;;4999000;28;20443;-77
2022/06/16 04:59:33;;;;;;;8.63;4.10;;;;;;;;;;4997138;28;20719;-76
2022/06/16 05:02:01;;;;;;;9.37;4.17;;;;;;;;;;4998919;28;20203;-76
2022/06/16 05:04:28;;;;;;;5.97;4.20;;;;;;;;;;4996179;28;20722;-76
2022/06/16 05:06:56;;;;;;;6.43;4.10;;;;;;;;;;4998028;28;21103;-75
2022/06/16 05:09:25;;;;;;;8.97;4.13;;;;;;;;;;4996945;28;20204;-75
2022/06/16 05:11:52;;;;;;;7.30;4.10;;;;;;;;;;4995117;28;20204;-76
2022/06/16 05:14:20;;;;;;;9.00;4.23;;;;;;;;;;4998522;28;20304;-75
2022/06/16 05:16:47;;;;;;;6.73;4.23;;;;;;;;;;4995177;28;20215;-76
2022/06/16 05:19:17;;;;;;;7.50;4.30;;;;;;;;;;4997094;28;20204;-73
2022/06/16 05:21:44;;;;;;;5.23;3.90;;;;;;;;;;4994851;28;20300;-75
2022/06/16 05:24:11;;;;;;;4.77;4.13;;;;;;;;;;4999375;28;20706;-75
2022/06/16 05:26:40;;;;;;;9.73;4.33;;;;;;;;;;5000842;28;20681;-77
2022/06/16 05:29:07;;;;;;;7.53;4.43;;;;;;;;;;4999608;28;20215;-73
2022/06/16 05:31:36;;;;;;;7.80;4.00;;;;;;;;;;4997790;28;20201;-74
2022/06/16 05:34:04;;;;;;;7.57;3.73;;;;;;;;;;5000530;28;20230;-75
2022/06/16 05:36:31;;;;;;;7.73;3.73;;;;;;;;;;4996232;28;20201;-77
2022/06/16 05:38:58;;;;;;;7.37;4.13;;;;;;;;;;4996090;28;20228;-74
2022/06/16 05:41:25;;;;;;;7.87;3.90;;;;;;;;;;4995666;28;20227;-75
2022/06/16 05:43:54;;;;;;;5.53;4.00;;;;;;;;;;4998700;28;20231;-74
2022/06/16 05:46:21;;;;;;;8.00;3.70;;;;;;;;;;4997883;28;20204;-75
2022/06/16 05:48:49;;;;;;;7.90;4.00;;;;;;;;;;4997840;28;20296;-76
2022/06/16 05:51:16;;;;;;;7.63;3.60;;;;;;;;;;4993822;28;20213;-77
2022/06/16 05:53:44;;;;;;;12.50;3.73;;;;;;;;;;5000798;28;20721;-77
2022/06/16 05:56:12;;;;;;;7.27;3.40;;;;;;;;;;4997282;28;20288;-74
2022/06/16 05:58:39;;;;;;;7.63;3.40;;;;;;;;;;4993767;28;20236;-76
2022/06/16 06:01:08;;;;;;;6.17;3.40;;;;;;;;;;4995681;28;21827;-75
2022/06/16 06:03:35;;;;;;;7.53;3.00;;;;;;;;;;4995232;28;20217;-76
2022/06/16 06:06:02;;;;;;;5.20;3.00;;;;;;;;;;4998067;28;20438;-75
2022/06/16 06:16:46;;;;;;;5.80;3.30;;;;;;;;;;4991816;28;20238;-75
2022/06/16 06:19:27;;;;;;;5.43;3.03;;;;;;;;;;4995121;28;20218;-77
2022/06/16 06:22:03;;;;;;;7.43;3.03;;;;;;;;;;4997595;28;20316;-77
2022/06/16 06:24:32;;;;;;;6.00;3.23;;;;;;;;;;4994099;28;20233;-76
2022/06/16 06:27:00;;;;;;;6.17;3.10;;;;;;;;;;4994539;28;20211;-73
2022/06/16 06:29:27;;;;;;;5.93;2.77;;;;;;;;;;5000418;28;20219;-72
2022/06/16 06:31:57;;;;;;;7.53;3.50;;;;;;;;;;4997695;28;20208;-73
2022/06/16 06:34:24;;;;;;;8.77;3.20;;;;;;;;;;4998495;28;20228;-72
2022/06/16 06:36:51;;;;;;;6.90;3.30;;;;;;;;;;4994957;28;20209;-72
2022/06/16 06:39:18;;;;;;;5.63;3.00;;;;;;;;;;4995858;28;20315;-72
2022/06/16 06:41:45;;;;;;;5.10;3.00;;;;;;;;;;4993318;28;20394;-73
2022/06/16 06:44:13;;;;;;;7.73;3.37;;;;;;;;;;4996107;28;20220;-73
2022/06/16 06:46:40;;;;;;;4.77;2.93;;;;;;;;;;4993984;28;20201;-74
2022/06/16 06:49:08;;;;;;;4.80;2.70;;;;;;;;;;4998088;28;20291;-72
2022/06/16 06:51:36;;;;;;;4.85;2.70;;;;;;;;;;4995057;28;20208;-74
2022/06/16 06:54:03;;;;;;;6.35;2.88;;;;;;;;;;4995490;28;20762;-73
2022/06/16 06:56:32;;;;;;;3.28;2.50;;;;;;;;;;4999917;28;20201;-74
2022/06/16 06:59:00;;;;;;;7.35;2.78;;;;;;;;;;4999283;28;20220;-74
2022/06/16 07:01:28;;;;;;;6.88;3.08;;;;;;;;;;4998876;28;20224;-76
2022/06/16 07:03:55;;;;;;;4.03;2.50;;;;;;;;;;4996295;28;20233;-75
2022/06/16 07:06:24;;;;;;;7.45;2.70;;;;;;;;;;4995269;28;20200;-73
2022/06/16 07:08:51;;;;;;;4.35;2.60;;;;;;;;;;4998897;28;20673;-72
2022/06/16 07:11:18;;;;;;;3.55;2.50;;;;;;;;;;4993786;28;20578;-75
2022/06/16 07:13:45;;;;;;;5.35;2.70;;;;;;;;;;4992279;28;20224;-75
2022/06/16 07:16:13;;;;;;;9.90;2.65;;;;;;;;;;4995698;28;20220;-72
2022/06/16 07:18:40;;;;;;;4.70;2.53;;;;;;;;;;4995021;28;20247;-75
2022/06/16 07:21:07;;;;;;;6.65;2.55;;;;;;;;;;4995738;28;20675;-75
2022/06/16 07:23:36;;;;;;;4.20;2.58;;;;;;;;;;4991930;28;20736;-74
2022/06/16 07:26:03;;;;;;;5.68;2.50;;;;;;;;;;4997149;28;20210;-73
2022/06/16 07:28:30;;;;;;;6.20;2.70;;;;;;;;;;4994696;28;20201;-74
2022/06/16 07:30:58;;;;;;;6.25;2.65;;;;;;;;;;4997724;28;20202;-75
2022/06/16 07:33:25;;;;;;;6.03;2.85;;;;;;;;;;4993177;28;20925;-75
2022/06/16 07:35:55;;;;;;;5.70;2.47;;;;;;;;;;4996194;28;20210;-75
2022/06/16 07:38:22;;;;;;;6.88;2.40;;;;;;;;;;4998654;28;20314;-75
2022/06/16 07:40:52;;;;;;;5.82;2.47;;;;;;;;;;4999515;28;20205;-75
2022/06/16 07:43:19;;;;;;;5.93;2.33;;;;;;;;;;4999355;28;20232;-74
2022/06/16 07:45:49;;;;;;;4.95;2.65;;;;;;;;;;5000158;28;20272;-75
2022/06/16 07:48:17;;;;;;;5.75;2.55;;;;;;;;;;5000870;23;20275;-80
2022/06/16 07:50:44;;;;;;;6.30;2.63;;;;;;;;;;4986890;28;20571;-81
2022/06/16 07:53:14;;;;;;;5.45;2.53;;;;;;;;;;4991833;28;20296;-82
2022/06/16 07:55:42;;;;;;;6.00;2.45;;;;;;;;;;4990154;28;20791;-82
2022/06/16 07:58:11;;;;;;;4.22;2.60;;;;;;;;;;4975109;28;20239;-84
2022/06/16 08:00:38;;;;;;;6.10;2.35;;;;;;;;;;4970879;28;20212;-83
2022/06/16 08:03:16;;;;;;;3.72;2.22;;;;;;;;;;4972250;28;20643;-83
2022/06/16 08:05:46;;;;;;;9.65;2.70;;;;;;;;;;4975218;28;20224;-82
2022/06/16 08:08:13;;;;;;;7.63;2.38;;;;;;;;;;4973988;28;20226;-82
2022/06/16 08:10:40;;;;;;;5.23;2.20;;;;;;;;;;4975073;28;20224;-82
2022/06/16 08:13:09;;;;;;;7.77;2.47;;;;;;;;;;4976600;28;20206;-83
2022/06/16 08:15:38;;;;;;;4.47;2.40;;;;;;;;;;4979694;28;20645;-82
2022/06/16 08:18:10;;;;;;;4.43;2.55;;;;;;;;;;4978458;28;20761;-82
2022/06/16 08:20:38;;;;;;;4.55;2.28;;;;;;;;;;4987117;28;20241;-82
2022/06/16 08:23:05;;;;;;;2.67;1.98;;;;;;;;;;4976854;28;20290;-83
2022/06/16 08:25:32;;;;;;;4.75;2.30;;;;;;;;;;4967890;28;20208;-82
2022/06/16 08:28:02;;;;;;;3.40;1.90;;;;;;;;;;4975709;28;20241;-83
2022/06/16 08:30:30;;;;;;;6.18;2.30;;;;;;;;;;4978360;28;20302;-83
2022/06/16 08:32:59;;;;;;;5.55;1.90;;;;;;;;;;4974209;28;20238;-83
2022/06/16 08:35:27;;;;;;;11.75;2.10;;;;;;;;;;4970586;28;20229;-82
2022/06/16 08:37:54;;;;;;;8.63;2.17;;;;;;;;;;4969305;28;20226;-83
2022/06/16 08:40:21;;;;;;;5.13;1.90;;;;;;;;;;4973032;28;20209;-83
2022/06/16 08:42:51;;;;;;;5.63;1.93;;;;;;;;;;4974146;28;20614;-82
2022/06/16 08:45:23;;;;;;;7.67;2.20;;;;;;;;;;4965241;28;20390;-82
2022/06/16 08:47:53;;;;;;;6.57;1.87;;;;;;;;;;4977556;28;20230;-82
2022/06/16 08:50:28;;;;;;;4.20;1.90;;;;;;;;;;4976298;28;21098;-83
2022/06/16 08:53:00;;;;;;;11.13;2.23;;;;;;;;;;4971384;28;20224;-82
2022/06/16 08:55:31;;;;;;;4.63;2.20;;;;;;;;;;4974916;28;20209;-82
2022/06/16 08:58:10;;;;;;;6.53;2.20;;;;;;;;;;4967221;28;20229;-82
2022/06/16 09:00:39;;;;;;;4.27;1.90;;;;;;;;;;4962189;28;20213;-81
2022/06/16 09:03:09;;;;;;;2.73;1.90;;;;;;;;;;4962648;28;20210;-82
2022/06/16 09:05:44;;;;;;;3.57;2.03;;;;;;;;;;4968807;28;20210;-81
2022/06/16 09:08:17;;;;;;;3.77;1.90;;;;;;;;;;4975695;28;20241;-81
2022/06/16 09:10:46;;;;;;;3.80;2.20;;;;;;;;;;4970974;28;20243;-81
2022/06/16 09:13:44;;;;;;;5.63;2.33;;;;;;;;;;4965066;28;20292;-82
2022/06/16 09:16:19;;;;;;;6.07;2.40;;;;;;;;;;4972662;28;20197;-81
2022/06/16 09:19:05;;;;;;;3.83;2.03;;;;;;;;;;4964757;28;20231;-82
2022/06/16 09:21:38;;;;;;;6.50;2.07;;;;;;;;;;4971176;28;20200;-82
2022/06/16 09:24:12;;;;;;;4.77;1.83;;;;;;;;;;4964229;28;20209;-82
2022/06/16 09:26:41;;;;;;;3.53;2.10;;;;;;;;;;4961587;28;20226;-82
2022/06/16 09:29:12;;;;;;;5.90;1.90;;;;;;;;;;4968073;28;20222;-82
2022/06/16 09:31:42;;;;;;;6.10;2.13;;;;;;;;;;4963682;28;20302;-82
2022/06/16 09:34:13;;;;;;;7.63;2.27;;;;;;;;;;4965920;28;20220;-82
2022/06/16 09:36:45;;;;;;;3.97;2.10;;;;;;;;;;4969505;28;20201;-82
2022/06/16 09:39:14;;;;;;;5.10;1.93;;;;;;;;;;4965525;28;20231;-82
2022/06/16 09:44:34;;;;;;;5.20;1.80;;;;;;;;;;4961696;28;20197;-82
2022/06/16 09:47:06;;;;;;;2.40;1.60;;;;;;;;;;4961515;28;20307;-80
2022/06/16 09:49:36;;;;;;;5.33;1.73;;;;;;;;;;4960997;28;20589;-81
2022/06/16 09:52:08;;;;;;;2.90;1.60;;;;;;;;;;4962239;28;20224;-81
2022/06/16 09:54:38;;;;;;;5.57;3.00;;;;;;;;;;4961963;28;20728;-81
2022/06/16 09:57:08;;;;;;;4.73;1.90;;;;;;;;;;4964652;28;20231;-81
2022/06/16 09:59:42;;;;;;;6.27;2.30;;;;;;;;;;4963371;28;20246;-81
2022/06/16 10:02:13;;;;;;;2.97;1.90;;;;;;;;;;4965770;28;20276;-81
2022/06/16 10:04:40;;;;;;;6.93;2.53;;;;;;;;;;4960691;28;20225;-82
2022/06/16 10:07:20;;;;;;;3.17;1.30;;;;;;;;;;4963143;28;20224;-82
2022/06/16 10:09:51;;;;;;;3.80;1.83;;;;;;;;;;4963443;28;20209;-82
2022/06/16 10:12:21;;;;;;;8.17;1.47;;;;;;;;;;4963356;28;20196;-81
2022/06/16 10:14:50;;;;;;;9.97;1.60;;;;;;;;;;4964356;28;20202;-80
2022/06/16 10:17:20;;;;;;;3.87;1.57;;;;;;;;;;4962022;28;20710;-81
2022/06/16 10:19:48;;;;;;;3.00;1.80;;;;;;;;;;4967430;28;20218;-81
2022/06/16 10:22:17;;;;;;;2.47;1.60;;;;;;;;;;4969273;28;20242;-81
2022/06/16 10:24:48;;;;;;;3.10;1.90;;;;;;;;;;4981229;28;20229;-82
2022/06/16 10:27:26;;;;;;;1.80;1.33;;;;;;;;;;4984033;28;20249;-82
2022/06/16 10:29:55;;;;;;;3.47;1.50;;;;;;;;;;4988671;28;20193;-82
2022/06/16 10:32:34;;;;;;;3.83;1.47;;;;;;;;;;4968190;28;20204;-81
2022/06/16 10:35:02;;;;;;;6.23;3.27;;;;;;;;;;4963598;28;20216;-81
2022/06/16 10:37:32;;;;;;;4.30;1.80;;;;;;;;;;4961926;28;20311;-81
2022/06/16 10:40:02;;;;;;;6.77;2.70;;;;;;;;;;4958273;28;20222;-81
2022/06/16 10:42:31;;;;;;;1.90;1.43;;;;;;;;;;4959646;28;20204;-82
2022/06/16 10:44:59;;;;;;;5.63;3.00;;;;;;;;;;4966615;28;20304;-81
2022/06/16 10:47:32;;;;;;;6.73;2.00;;;;;;;;;;4968590;28;20237;-82
2022/06/16 10:50:00;;;;;;;9.10;3.20;;;;;;;;;;4965112;28;20357;-81
2022/06/16 10:52:34;;;;;;;5.50;1.70;;;;;;;;;;4965784;28;20572;-81
2022/06/16 10:55:05;;;;;;;4.83;1.80;;;;;;;;;;4966499;28;20212;-81
2022/06/16 10:57:34;;;;;;;7.53;2.10;;;;;;;;;;4962895;28;20238;-81
2022/06/16 11:00:05;;;;;;;3.70;2.63;;;;;;;;;;4983061;28;20652;-82
2022/06/16 11:02:35;;;;;;;3.27;1.60;;;;;;;;;;4965850;28;20213;-81
2022/06/16 11:05:04;;;;;;;4.40;2.03;;;;;;;;;;4963814;28;20210;-83
2022/06/16 11:07:40;;;;;;;7.23;2.70;;;;;;;;;;4972736;28;20237;-81
2022/06/16 11:10:09;;;;;;;4.73;2.20;;;;;;;;;;4965922;28;20279;-83
2022/06/16 11:12:38;;;;;;;6.23;1.70;;;;;;;;;;4974703;28;20316;-81
2022/06/16 11:15:09;;;;;;;6.17;4.17;;;;;;;;;;4971529;28;20210;-82
2022/06/16 11:17:38;;;;;;;2.87;1.77;;;;;;;;;;4978182;28;20790;-81
2022/06/16 11:20:08;;;;;;;6.27;2.60;;;;;;;;;;4970847;28;20229;-82
2022/06/16 11:25:26;;;;;;;3.47;1.57;;;;;;;;;;4965663;28;20810;-82
2022/06/16 11:30:43;;;;;;;2.80;1.80;;;;;;;;;;4975094;28;20202;-82
2022/06/16 11:34:06;;;;;;;4.17;1.67;;;;;;;;;;4962517;28;20197;-83
2022/06/16 11:36:14;;;;;;;6.80;2.73;;;;;;;;;;4964804;28;20271;-82
2022/06/16 11:38:47;;;;;;;8.00;2.70;;;;;;;;;;4966975;28;20225;-83
2022/06/16 11:41:15;;;;;;;7.23;2.20;;;;;;;;;;4974852;28;20285;-83
2022/06/16 11:44:14;;;;;;;5.40;1.80;;;;;;;;;;4970549;28;20217;-82
2022/06/16 11:46:47;;;;;;;5.20;2.13;;;;;;;;;;4970944;28;20212;-82
2022/06/16 11:49:23;;;;;;;12.67;6.17;;;;;;;;;;4967843;28;20216;-82
2022/06/16 11:51:54;;;;;;;5.27;1.80;;;;;;;;;;4963007;28;20296;-82
2022/06/16 11:54:30;;;;;;;2.67;1.40;;;;;;;;;;4965987;28;20678;-82
2022/06/16 11:57:03;;;;;;;3.70;2.10;;;;;;;;;;4966679;28;20256;-83
2022/06/16 11:59:51;;;;;;;5.70;1.60;;;;;;;;;;4975749;28;20242;-82
2022/06/16 12:02:36;;;;;;;3.97;1.60;;;;;;;;;;4969381;28;20256;-80
2022/06/16 12:05:07;;;;;;;2.80;1.47;;;;;;;;;;4961763;28;20304;-81
2022/06/16 12:07:45;;;;;;;7.43;1.73;;;;;;;;;;4972532;28;20267;-82
2022/06/16 12:10:18;;;;;;;1.67;1.20;;;;;;;;;;4971373;28;20741;-81
2022/06/16 12:12:48;;;;;;;4.23;1.10;;;;;;;;;;4963824;28;20211;-81
2022/06/16 12:15:23;;;;;;;3.53;1.30;;;;;;;;;;4973529;28;20901;-81
2022/06/16 12:17:54;;;;;;;3.43;1.37;;;;;;;;;;4971432;28;20260;-81
2022/06/16 12:20:24;;;;;;;4.70;1.10;;;;;;;;;;4965366;28;20217;-83
2022/06/16 12:22:55;;;;;;;3.23;1.43;;;;;;;;;;4973016;28;20232;-83
2022/06/16 12:25:29;;;;;;;3.03;1.40;;;;;;;;;;4975720;28;20202;-83
2022/06/16 12:27:58;;;;;;;2.57;1.37;;;;;;;;;;4971270;28;20230;-82
2022/06/16 12:30:28;;;;;;;2.50;1.10;;;;;;;;;;4973055;28;20206;-83
2022/06/16 12:32:59;;;;;;;3.43;1.30;;;;;;;;;;4969331;28;20260;-82
2022/06/16 12:35:33;;;;;;;5.17;1.60;;;;;;;;;;4972853;28;20874;-83
2022/06/16 12:38:02;;;;;;;3.27;1.50;;;;;;;;;;4964481;28;20233;-83
2022/06/16 12:40:32;;;;;;;2.63;1.20;;;;;;;;;;4969737;28;20251;-82
2022/06/16 12:43:02;;;;;;;4.50;1.40;;;;;;;;;;4965362;28;20292;-82
2022/06/16 12:45:33;;;;;;;2.80;1.50;;;;;;;;;;4961645;28;20230;-82
2022/06/16 12:48:02;;;;;;;2.40;1.30;;;;;;;;;;4966115;28;20288;-83
2022/06/16 12:50:32;;;;;;;2.10;1.30;;;;;;;;;;4965094;28;20233;-81
2022/06/16 12:53:01;;;;;;;3.57;1.30;;;;;;;;;;4968594;28;20219;-82
2022/06/16 12:55:31;;;;;;;2.43;1.30;;;;;;;;;;4962916;28;20237;-82
2022/06/16 12:58:02;;;;;;;6.23;1.30;;;;;;;;;;4967548;28;20230;-82
2022/06/16 13:00:32;;;;;;;3.67;1.10;;;;;;;;;;4964933;28;20315;-81
2022/06/16 13:03:01;;;;;;;4.37;1.70;;;;;;;;;;4974731;28;20196;-82
2022/06/16 13:05:28;;;;;;;2.80;1.77;;;;;;;;;;4962452;28;20581;-83
2022/06/16 13:07:59;;;;;;;2.13;1.20;;;;;;;;;;4970158;28;20226;-82
2022/06/16 13:10:26;;;;;;;2.77;1.30;;;;;;;;;;4968288;28;20269;-82
2022/06/16 13:12:55;;;;;;;3.17;1.23;;;;;;;;;;4968392;28;20201;-82
2022/06/16 13:15:25;;;;;;;4.27;1.10;;;;;;;;;;4969229;28;20213;-81
2022/06/16 13:17:53;;;;;;;3.67;1.00;;;;;;;;;;4967454;28;20225;-82
2022/06/16 13:20:22;;;;;;;1.77;1.00;;;;;;;;;;4970020;28;20230;-83
2022/06/16 13:22:57;;;;;;;3.40;0.97;;;;;;;;;;4973546;28;20311;-81
2022/06/16 13:25:47;;;;;;;2.30;1.10;;;;;;;;;;4967483;28;20213;-81
2022/06/16 13:28:19;;;;;;;4.03;0.90;;;;;;;;;;4970248;28;20259;-82
2022/06/16 13:31:13;;;;;;;5.60;1.00;;;;;;;;;;4974727;28;20736;-81
2022/06/16 13:33:45;;;;;;;1.70;1.00;;;;;;;;;;4964918;28;20209;-81
2022/06/16 13:36:17;;;;;;;3.20;0.83;;;;;;;;;;4991597;28;20223;-82
2022/06/16 13:38:46;;;;;;;2.93;1.10;;;;;;;;;;4988016;28;20318;-81
2022/06/16 13:41:35;;;;;;;2.33;0.90;;;;;;;;;;4967257;28;21821;-81
2022/06/16 13:44:13;;;;;;;3.70;1.00;;;;;;;;;;4970787;28;20237;-83
2022/06/16 13:47:14;;;;;;;6.80;0.97;;;;;;;;;;4969057;28;20207;-82
2022/06/16 13:49:59;;;;;;;1.43;0.77;;;;;;;;;;4967486;28;20209;-83
2022/06/16 13:52:28;;;;;;;3.23;1.00;;;;;;;;;;4985408;28;20211;-83
2022/06/16 13:55:05;;;;;;;1.10;0.87;;;;;;;;;;4991882;28;20198;-84
2022/06/16 13:57:33;;;;;;;2.37;0.87;;;;;;;;;;4972876;28;20252;-82
2022/06/16 14:00:03;;;;;;;3.50;1.20;;;;;;;;;;4966814;28;20699;-81
2022/06/16 14:02:32;;;;;;;2.50;0.90;;;;;;;;;;4969302;28;20304;-81
2022/06/16 14:05:03;;;;;;;3.47;1.10;;;;;;;;;;4969697;28;20266;-82
2022/06/16 14:07:37;;;;;;;3.80;1.07;;;;;;;;;;4975012;28;20504;-82
2022/06/16 14:10:10;;;;;;;2.20;0.70;;;;;;;;;;4966614;28;20208;-81
2022/06/16 14:12:56;;;;;;;0.77;0.70;;;;;;;;;;4975016;28;20741;-81
2022/06/16 14:15:39;;;;;;;2.17;0.93;;;;;;;;;;4970550;28;20595;-81
2022/06/16 14:18:17;;;;;;;1.40;0.80;;;;;;;;;;4973109;28;20229;-83
2022/06/16 14:20:46;;;;;;;1.20;0.80;;;;;;;;;;4968540;28;20239;-81
2022/06/16 14:23:16;;;;;;;1.90;0.93;;;;;;;;;;4964612;28;20284;-82
2022/06/16 14:25:46;;;;;;;5.47;1.00;;;;;;;;;;4961102;28;20304;-82
2022/06/16 14:28:16;;;;;;;2.60;0.70;;;;;;;;;;4964966;28;20222;-82
2022/06/16 14:30:45;;;;;;;1.67;0.80;;;;;;;;;;4962274;28;20201;-81
2022/06/16 14:33:16;;;;;;;2.50;0.80;;;;;;;;;;4957513;28;20232;-80
2022/06/16 14:35:46;;;;;;;2.07;0.70;;;;;;;;;;4979015;28;20201;-82
2022/06/16 14:38:18;;;;;;;1.20;0.60;;;;;;;;;;4959050;28;20250;-81
2022/06/16 14:40:47;;;;;;;2.83;0.70;;;;;;;;;;4959367;28;20689;-81
2022/06/16 14:43:21;;;;;;;2.07;0.80;;;;;;;;;;4956641;28;20721;-82
2022/06/16 14:45:52;;;;;;;1.63;0.60;;;;;;;;;;4956306;28;20736;-83
2022/06/16 14:48:24;;;;;;;2.70;0.83;;;;;;;;;;4965112;28;20236;-81
2022/06/16 14:50:54;;;;;;;1.83;0.80;;;;;;;;;;4959415;28;20233;-81
2022/06/16 14:53:24;;;;;;;0.90;0.60;;;;;;;;;;4963688;28;20221;-82
2022/06/16 14:55:53;;;;;;;1.23;0.63;;;;;;;;;;4962931;28;20260;-81
2022/06/16 14:58:21;;;;;;;3.10;0.70;;;;;;;;;;4961356;28;20250;-81
2022/06/16 15:00:50;;;;;;;4.20;0.70;;;;;;;;;;4957651;28;20600;-81
2022/06/16 15:03:19;;;;;;;4.80;0.73;;;;;;;;;;4964372;28;20733;-82
2022/06/16 15:05:46;;;;;;;3.57;0.83;;;;;;;;;;4965783;28;20225;-81
2022/06/16 15:08:18;;;;;;;2.03;0.70;;;;;;;;;;4959304;28;20282;-82
2022/06/16 15:10:50;;;;;;;1.93;0.70;;;;;;;;;;4966489;28;20218;-82
2022/06/16 15:13:21;;;;;;;3.20;0.63;;;;;;;;;;4964292;28;20200;-82
2022/06/16 15:15:49;;;;;;;2.70;0.60;;;;;;;;;;4968194;28;20232;-82
2022/06/16 15:18:15;;;;;;;1.27;0.60;;;;;;;;;;4969307;28;20259;-82
2022/06/16 15:20:46;;;;;;;2.23;0.70;;;;;;;;;;4960415;28;20228;-81
2022/06/16 15:23:14;;;;;;;1.33;0.50;;;;;;;;;;4958882;28;20277;-82